sensor_id;sensor_type;location;lat;lon;timestamp;pressure;altitude;pressure_sealevel;temperature;humidity
63665;BME280;49820;33.966;73.390;2023-07-02T02:23:44;78654.75;;;19.82;100.00
63665;BME280;49820;33.966;73.390;2023-07-02T02:26:13;78646.16;;;19.90;100.00
63665;BME280;49820;33.966;73.390;2023-07-02T02:28:43;78658.06;;;20.08;100.00
63665;BME280;49820;33.966;73.390;2023-07-02T02:31:12;78637.53;;;20.11;100.00
63665;BME280;49820;33.966;73.390;2023-07-02T02:33:42;78634.91;;;20.22;100.00
63665;BME280;49820;33.966;73.390;2023-07-02T02:36:12;78642.47;;;20.44;100.00
63665;BME280;49820;33.966;73.390;2023-07-02T02:38:41;78629.03;;;20.66;100.00
63665;BME280;49820;33.966;73.390;2023-07-02T02:41:10;78620.47;;;20.61;100.00
63665;BME280;49820;33.966;73.390;2023-07-02T02:43:44;78644.38;;;21.05;100.00
63665;BME280;49820;33.966;73.390;2023-07-02T02:46:21;78657.75;;;21.43;100.00
63665;BME280;49820;33.966;73.390;2023-07-02T02:48:52;78642.13;;;21.54;100.00
63665;BME280;49820;33.966;73.390;2023-07-02T02:51:20;78655.25;;;21.73;100.00
63665;BME280;49820;33.966;73.390;2023-07-02T02:53:49;78662.63;;;22.08;100.00
63665;BME280;49820;33.966;73.390;2023-07-02T02:56:19;78647.47;;;22.22;100.00
63665;BME280;49820;33.966;73.390;2023-07-02T02:58:47;78615.22;;;22.27;100.00
63665;BME280;49820;33.966;73.390;2023-07-02T03:01:18;78665.03;;;22.89;100.00
63665;BME280;49820;33.966;73.390;2023-07-02T03:03:47;78649.44;;;22.88;97.46
63665;BME280;49820;33.966;73.390;2023-07-02T03:06:16;78663.84;;;22.65;100.00
63665;BME280;49820;33.966;73.390;2023-07-02T03:08:45;78671.25;;;22.98;100.00
63665;BME280;49820;33.966;73.390;2023-07-02T03:11:17;78645.88;;;23.42;97.92
63665;BME280;49820;33.966;73.390;2023-07-02T03:13:49;78649.41;;;23.19;100.00
63665;BME280;49820;33.966;73.390;2023-07-02T03:16:18;78643.78;;;23.53;100.00
63665;BME280;49820;33.966;73.390;2023-07-02T03:18:49;78656.06;;;23.74;100.00
63665;BME280;49820;33.966;73.390;2023-07-02T03:21:19;78636.03;;;24.07;91.79
63665;BME280;49820;33.966;73.390;2023-07-02T03:23:48;78647.94;;;23.52;97.18
63665;BME280;49820;33.966;73.390;2023-07-02T03:26:16;78654.22;;;23.19;100.00
63665;BME280;49820;33.966;73.390;2023-07-02T03:28:47;78654.78;;;22.79;100.00
63665;BME280;49820;33.966;73.390;2023-07-02T03:31:16;78663.47;;;22.60;100.00
63665;BME280;49820;33.966;73.390;2023-07-02T03:55:55;78644.94;;;24.65;79.22
63665;BME280;49820;33.966;73.390;2023-07-02T03:59:53;78616.66;;;23.41;92.17
63665;BME280;49820;33.966;73.390;2023-07-02T04:03:20;78641.06;;;24.43;87.26
63665;BME280;49820;33.966;73.390;2023-07-02T04:05:49;78625.72;;;25.15;82.05
63665;BME280;49820;33.966;73.390;2023-07-02T04:08:18;78656.59;;;24.55;88.74
63665;BME280;49820;33.966;73.390;2023-07-02T04:10:49;78645.88;;;24.81;85.72
63665;BME280;49820;33.966;73.390;2023-07-02T04:13:18;78630.34;;;25.07;84.23
63665;BME280;49820;33.966;73.390;2023-07-02T04:15:47;78633.06;;;25.07;81.76
63665;BME280;49820;33.966;73.390;2023-07-02T04:18:18;78655.22;;;24.46;99.56
63665;BME280;49820;33.966;73.390;2023-07-02T04:20:46;78638.28;;;25.39;90.26
63665;BME280;49820;33.966;73.390;2023-07-02T04:23:15;78638.44;;;25.37;84.89
63665;BME280;49820;33.966;73.390;2023-07-02T04:25:45;78614.84;;;25.51;80.97
63665;BME280;49820;33.966;73.390;2023-07-02T04:28:34;78653.84;;;25.88;82.52
63665;BME280;49820;33.966;73.390;2023-07-02T04:31:04;78648.31;;;24.66;95.24
63665;BME280;49820;33.966;73.390;2023-07-02T04:33:33;78635.31;;;25.05;95.44
63665;BME280;49820;33.966;73.390;2023-07-02T04:36:04;78626.56;;;24.94;84.17
63665;BME280;49820;33.966;73.390;2023-07-02T04:38:33;78652.00;;;25.48;81.14
63665;BME280;49820;33.966;73.390;2023-07-02T04:41:02;78641.59;;;25.87;79.35
63665;BME280;49820;33.966;73.390;2023-07-02T04:43:33;78640.09;;;24.96;82.95
63665;BME280;49820;33.966;73.390;2023-07-02T04:46:02;78636.81;;;25.13;82.72
63665;BME280;49820;33.966;73.390;2023-07-02T04:48:31;78621.16;;;26.93;84.72
63665;BME280;49820;33.966;73.390;2023-07-02T04:51:03;78629.53;;;25.84;81.21
63665;BME280;49820;33.966;73.390;2023-07-02T04:53:32;78648.75;;;25.65;88.33
63665;BME280;49820;33.966;73.390;2023-07-02T04:56:00;78638.75;;;26.26;80.98
63665;BME280;49820;33.966;73.390;2023-07-02T04:58:30;78651.22;;;25.02;85.70
63665;BME280;49820;33.966;73.390;2023-07-02T05:00:59;78645.47;;;26.18;79.25
63665;BME280;49820;33.966;73.390;2023-07-02T05:03:28;78643.59;;;27.13;83.42
63665;BME280;49820;33.966;73.390;2023-07-02T05:05:57;78650.50;;;25.96;74.92
63665;BME280;49820;33.966;73.390;2023-07-02T05:08:27;78643.81;;;25.76;78.83
63665;BME280;49820;33.966;73.390;2023-07-02T05:10:56;78648.75;;;25.18;95.12
63665;BME280;49820;33.966;73.390;2023-07-02T05:13:25;78641.31;;;25.91;84.95
63665;BME280;49820;33.966;73.390;2023-07-02T05:15:54;78641.34;;;27.42;74.67
63665;BME280;49820;33.966;73.390;2023-07-02T05:18:23;78646.97;;;27.91;66.00
63665;BME280;49820;33.966;73.390;2023-07-02T05:20:52;78634.06;;;27.81;65.70
63665;BME280;49820;33.966;73.390;2023-07-02T05:23:21;78627.75;;;27.91;65.63
63665;BME280;49820;33.966;73.390;2023-07-02T05:25:50;78639.41;;;27.49;65.11
63665;BME280;49820;33.966;73.390;2023-07-02T05:28:19;78631.13;;;27.92;67.24
63665;BME280;49820;33.966;73.390;2023-07-02T05:30:48;78636.44;;;28.02;68.57
63665;BME280;49820;33.966;73.390;2023-07-02T05:33:20;78637.94;;;27.50;66.39
63665;BME280;49820;33.966;73.390;2023-07-02T05:35:50;78663.88;;;26.82;70.04
63665;BME280;49820;33.966;73.390;2023-07-02T05:38:19;78624.06;;;27.86;68.48
63665;BME280;49820;33.966;73.390;2023-07-02T05:40:48;78619.56;;;27.40;67.75
63665;BME280;49820;33.966;73.390;2023-07-02T05:43:18;78631.84;;;26.44;68.84
63665;BME280;49820;33.966;73.390;2023-07-02T05:45:47;78613.59;;;27.28;68.54
63665;BME280;49820;33.966;73.390;2023-07-02T05:48:18;78625.97;;;27.96;68.86
63665;BME280;49820;33.966;73.390;2023-07-02T05:50:47;78627.31;;;27.20;70.55
63665;BME280;49820;33.966;73.390;2023-07-02T05:53:17;78581.94;;;28.22;64.46
63665;BME280;49820;33.966;73.390;2023-07-02T05:55:46;78607.66;;;28.60;60.50
63665;BME280;49820;33.966;73.390;2023-07-02T05:58:16;78590.09;;;28.48;66.30
63665;BME280;49820;33.966;73.390;2023-07-02T06:00:46;78618.34;;;28.96;63.41
63665;BME280;49820;33.966;73.390;2023-07-02T06:03:19;78610.72;;;28.97;61.51
63665;BME280;49820;33.966;73.390;2023-07-02T06:05:51;78609.56;;;29.98;79.98
63665;BME280;49820;33.966;73.390;2023-07-02T06:08:20;78604.09;;;29.02;59.56
63665;BME280;49820;33.966;73.390;2023-07-02T06:10:49;78585.38;;;28.55;61.67
63665;BME280;49820;33.966;73.390;2023-07-02T06:13:18;78609.97;;;28.90;58.69
63665;BME280;49820;33.966;73.390;2023-07-02T06:15:48;78602.97;;;29.47;57.95
63665;BME280;49820;33.966;73.390;2023-07-02T06:18:17;78592.31;;;30.06;63.08
63665;BME280;49820;33.966;73.390;2023-07-02T06:20:48;78575.06;;;29.75;55.56
63665;BME280;49820;33.966;73.390;2023-07-02T06:23:17;78601.75;;;30.00;56.36
63665;BME280;49820;33.966;73.390;2023-07-02T06:25:47;78595.81;;;29.02;57.97
63665;BME280;49820;33.966;73.390;2023-07-02T06:28:16;78603.84;;;29.60;57.33
63665;BME280;49820;33.966;73.390;2023-07-02T06:30:45;78588.50;;;29.94;59.84
63665;BME280;49820;33.966;73.390;2023-07-02T06:33:15;78591.22;;;29.79;56.79
63665;BME280;49820;33.966;73.390;2023-07-02T06:35:44;78581.28;;;30.06;56.31
63665;BME280;49820;33.966;73.390;2023-07-02T06:38:13;78594.03;;;29.94;54.24
63665;BME280;49820;33.966;73.390;2023-07-02T06:40:42;78587.75;;;29.87;60.85
63665;BME280;49820;33.966;73.390;2023-07-02T06:43:12;78518.13;;;29.65;56.85
63665;BME280;49820;33.966;73.390;2023-07-02T06:45:41;78577.59;;;29.62;55.99
63665;BME280;49820;33.966;73.390;2023-07-02T06:48:11;78587.84;;;29.07;59.92
63665;BME280;49820;33.966;73.390;2023-07-02T06:50:46;78557.03;;;28.33;58.91
63665;BME280;49820;33.966;73.390;2023-07-02T06:53:17;78584.34;;;29.00;60.08
63665;BME280;49820;33.966;73.390;2023-07-02T06:55:47;78574.63;;;29.25;58.80
63665;BME280;49820;33.966;73.390;2023-07-02T06:58:16;78574.94;;;29.68;60.01
63665;BME280;49820;33.966;73.390;2023-07-02T07:00:47;78568.38;;;29.17;60.62
63665;BME280;49820;33.966;73.390;2023-07-02T07:03:18;78569.91;;;29.71;64.07
63665;BME280;49820;33.966;73.390;2023-07-02T07:05:48;78570.22;;;29.75;58.47
63665;BME280;49820;33.966;73.390;2023-07-02T07:08:18;78560.09;;;29.65;59.16
63665;BME280;49820;33.966;73.390;2023-07-02T07:10:49;78574.91;;;28.81;61.69
63665;BME280;49820;33.966;73.390;2023-07-02T07:13:19;78573.47;;;29.06;58.95
63665;BME280;49820;33.966;73.390;2023-07-02T07:15:48;78555.13;;;29.11;58.78
63665;BME280;49820;33.966;73.390;2023-07-02T07:18:17;78549.19;;;29.09;68.19
63665;BME280;49820;33.966;73.390;2023-07-02T07:20:47;78544.28;;;29.57;59.93
63665;BME280;49820;33.966;73.390;2023-07-02T07:23:21;78551.88;;;28.94;61.39
63665;BME280;49820;33.966;73.390;2023-07-02T07:25:53;78546.94;;;29.03;62.56
63665;BME280;49820;33.966;73.390;2023-07-02T07:28:22;78543.56;;;29.26;68.29
63665;BME280;49820;33.966;73.390;2023-07-02T07:30:51;78560.91;;;27.86;63.09
63665;BME280;49820;33.966;73.390;2023-07-02T07:33:21;78553.38;;;27.52;66.74
63665;BME280;49820;33.966;73.390;2023-07-02T07:35:50;78540.75;;;27.73;64.16
63665;BME280;49820;33.966;73.390;2023-07-02T07:38:20;78542.97;;;28.93;58.82
63665;BME280;49820;33.966;73.390;2023-07-02T07:40:50;78542.06;;;29.27;61.58
63665;BME280;49820;33.966;73.390;2023-07-02T07:43:19;78537.75;;;29.60;62.27
63665;BME280;49820;33.966;73.390;2023-07-02T07:45:49;78540.75;;;28.14;62.85
63665;BME280;49820;33.966;73.390;2023-07-02T07:48:18;78540.03;;;29.19;59.98
63665;BME280;49820;33.966;73.390;2023-07-02T07:50:48;78544.19;;;29.27;60.74
63665;BME280;49820;33.966;73.390;2023-07-02T07:53:18;78538.34;;;28.83;65.52
63665;BME280;49820;33.966;73.390;2023-07-02T07:55:47;78535.75;;;30.07;70.61
63665;BME280;49820;33.966;73.390;2023-07-02T07:58:16;78530.06;;;29.70;58.28
63665;BME280;49820;33.966;73.390;2023-07-02T08:00:48;78503.53;;;28.32;62.29
63665;BME280;49820;33.966;73.390;2023-07-02T08:03:17;78529.56;;;30.37;60.79
63665;BME280;49820;33.966;73.390;2023-07-02T08:05:46;78507.03;;;29.73;61.76
63665;BME280;49820;33.966;73.390;2023-07-02T08:08:15;78524.84;;;29.74;56.94
63665;BME280;49820;33.966;73.390;2023-07-02T08:10:44;78530.88;;;30.07;62.63
63665;BME280;49820;33.966;73.390;2023-07-02T08:13:14;78531.69;;;30.36;55.64
63665;BME280;49820;33.966;73.390;2023-07-02T08:15:47;78531.84;;;29.34;64.44
63665;BME280;49820;33.966;73.390;2023-07-02T08:18:17;78519.94;;;29.20;61.51
63665;BME280;49820;33.966;73.390;2023-07-02T08:20:46;78529.59;;;29.28;59.95
63665;BME280;49820;33.966;73.390;2023-07-02T08:23:17;78526.91;;;29.43;61.02
63665;BME280;49820;33.966;73.390;2023-07-02T08:25:47;78495.34;;;27.82;61.37
63665;BME280;49820;33.966;73.390;2023-07-02T08:28:17;78497.66;;;27.71;64.06
63665;BME280;49820;33.966;73.390;2023-07-02T08:30:46;78502.19;;;28.39;63.41
63665;BME280;49820;33.966;73.390;2023-07-02T08:33:16;78505.91;;;29.16;60.22
63665;BME280;49820;33.966;73.390;2023-07-02T08:35:54;78422.16;;;29.06;60.37
63665;BME280;49820;33.966;73.390;2023-07-02T08:38:58;78428.63;;;29.27;57.74
63665;BME280;49820;33.966;73.390;2023-07-02T08:42:07;78436.34;;;29.33;55.60
63665;BME280;49820;33.966;73.390;2023-07-02T08:48:26;78435.00;;;28.30;56.82
63665;BME280;49820;33.966;73.390;2023-07-02T08:50:58;78471.97;;;28.87;57.11
63665;BME280;49820;33.966;73.390;2023-07-02T08:53:26;78469.47;;;29.00;58.81
63665;BME280;49820;33.966;73.390;2023-07-02T08:56:03;78484.00;;;29.77;61.67
63665;BME280;49820;33.966;73.390;2023-07-02T08:58:33;78473.63;;;29.92;57.03
63665;BME280;49820;33.966;73.390;2023-07-02T09:01:10;78488.16;;;29.30;58.04
63665;BME280;49820;33.966;73.390;2023-07-02T09:03:41;78474.91;;;30.09;59.50
63665;BME280;49820;33.966;73.390;2023-07-02T09:06:11;78468.75;;;30.39;55.83
63665;BME280;49820;33.966;73.390;2023-07-02T09:08:41;78424.88;;;29.91;59.96
63665;BME280;49820;33.966;73.390;2023-07-02T09:11:13;78477.56;;;30.85;63.66
63665;BME280;49820;33.966;73.390;2023-07-02T09:16:30;78476.19;;;30.25;57.91
63665;BME280;49820;33.966;73.390;2023-07-02T09:19:07;78478.69;;;30.05;55.37
63665;BME280;49820;33.966;73.390;2023-07-02T09:21:45;78473.84;;;30.58;55.34
63665;BME280;49820;33.966;73.390;2023-07-02T09:24:18;78473.22;;;30.94;55.50
63665;BME280;49820;33.966;73.390;2023-07-02T09:26:59;78441.53;;;31.08;60.20
63665;BME280;49820;33.966;73.390;2023-07-02T09:29:31;78425.25;;;31.13;61.20
63665;BME280;49820;33.966;73.390;2023-07-02T09:32:03;78440.22;;;29.66;56.44
63665;BME280;49820;33.966;73.390;2023-07-02T09:34:38;78447.66;;;28.74;67.12
63665;BME280;49820;33.966;73.390;2023-07-02T09:37:14;78425.53;;;29.76;62.16
63665;BME280;49820;33.966;73.390;2023-07-02T09:39:43;78437.69;;;29.10;63.12
63665;BME280;49820;33.966;73.390;2023-07-02T09:42:13;78425.13;;;28.33;65.65
63665;BME280;49820;33.966;73.390;2023-07-02T09:44:43;78443.66;;;27.85;79.04
63665;BME280;49820;33.966;73.390;2023-07-02T09:47:14;78409.38;;;27.10;76.86
63665;BME280;49820;33.966;73.390;2023-07-02T09:49:57;78441.09;;;27.24;74.63
63665;BME280;49820;33.966;73.390;2023-07-02T09:52:27;78415.06;;;26.82;76.79
63665;BME280;49820;33.966;73.390;2023-07-02T09:54:57;78432.81;;;28.15;79.36
63665;BME280;49820;33.966;73.390;2023-07-02T09:57:26;78411.38;;;28.09;69.54
63665;BME280;49820;33.966;73.390;2023-07-02T10:00:01;78428.25;;;29.31;68.06
63665;BME280;49820;33.966;73.390;2023-07-02T10:02:32;78402.66;;;29.78;61.01
63665;BME280;49820;33.966;73.390;2023-07-02T10:05:01;78413.72;;;28.22;76.89
63665;BME280;49820;33.966;73.390;2023-07-02T10:07:31;78410.50;;;27.63;80.39
63665;BME280;49820;33.966;73.390;2023-07-02T10:10:01;78406.69;;;27.43;75.08
63665;BME280;49820;33.966;73.390;2023-07-02T10:12:30;78400.09;;;27.40;72.28
63665;BME280;49820;33.966;73.390;2023-07-02T10:15:04;78412.72;;;27.69;70.69
63665;BME280;49820;33.966;73.390;2023-07-02T10:17:34;78415.94;;;27.30;72.11
63665;BME280;49820;33.966;73.390;2023-07-02T10:20:07;78379.63;;;26.72;76.45
63665;BME280;49820;33.966;73.390;2023-07-02T10:22:47;78412.97;;;27.41;86.20
63665;BME280;49820;33.966;73.390;2023-07-02T10:25:33;78407.09;;;27.21;85.80
63665;BME280;49820;33.966;73.390;2023-07-02T10:28:20;78389.53;;;27.10;82.31
63665;BME280;49820;33.966;73.390;2023-07-02T10:30:55;78401.66;;;27.04;75.02
63665;BME280;49820;33.966;73.390;2023-07-02T10:33:26;78395.25;;;26.82;88.12
63665;BME280;49820;33.966;73.390;2023-07-02T10:35:55;78404.41;;;27.86;76.18
63665;BME280;49820;33.966;73.390;2023-07-02T10:38:25;78391.69;;;26.92;84.10
63665;BME280;49820;33.966;73.390;2023-07-02T10:41:00;78417.53;;;26.52;89.06
63665;BME280;49820;33.966;73.390;2023-07-02T10:43:31;78380.31;;;25.86;93.03
63665;BME280;49820;33.966;73.390;2023-07-02T10:46:01;78398.66;;;26.13;87.90
63665;BME280;49820;33.966;73.390;2023-07-02T10:48:31;78404.13;;;25.79;87.83
63665;BME280;49820;33.966;73.390;2023-07-02T10:51:11;78396.88;;;26.53;84.49
63665;BME280;49820;33.966;73.390;2023-07-02T10:53:40;78378.66;;;27.66;80.89
63665;BME280;49820;33.966;73.390;2023-07-02T10:56:16;78400.47;;;26.26;87.69
63665;BME280;49820;33.966;73.390;2023-07-02T10:58:46;78381.47;;;27.49;74.44
63665;BME280;49820;33.966;73.390;2023-07-02T11:01:27;78379.91;;;27.76;72.53
63665;BME280;49820;33.966;73.390;2023-07-02T11:04:02;78381.88;;;28.25;72.43
63665;BME280;49820;33.966;73.390;2023-07-02T11:06:33;78367.16;;;28.28;73.55
63665;BME280;49820;33.966;73.390;2023-07-02T11:09:16;78396.47;;;28.15;80.01
63665;BME280;49820;33.966;73.390;2023-07-02T11:11:57;78384.31;;;27.96;73.55
63665;BME280;49820;33.966;73.390;2023-07-02T11:14:31;78392.25;;;28.63;72.92
63665;BME280;49820;33.966;73.390;2023-07-02T11:17:04;78393.34;;;28.90;72.31
63665;BME280;49820;33.966;73.390;2023-07-02T11:19:35;78387.03;;;28.92;67.17
63665;BME280;49820;33.966;73.390;2023-07-02T11:22:11;78356.97;;;28.03;72.98
63665;BME280;49820;33.966;73.390;2023-07-02T11:24:40;78383.00;;;28.91;71.65
63665;BME280;49820;33.966;73.390;2023-07-02T11:27:09;78377.06;;;29.18;65.97
63665;BME280;49820;33.966;73.390;2023-07-02T11:29:59;78373.38;;;29.13;64.85
63665;BME280;49820;33.966;73.390;2023-07-02T11:32:28;78366.50;;;28.52;67.19
63665;BME280;49820;33.966;73.390;2023-07-02T11:34:57;78374.56;;;28.54;66.56
63665;BME280;49820;33.966;73.390;2023-07-02T11:37:28;78373.94;;;28.53;67.52
63665;BME280;49820;33.966;73.390;2023-07-02T11:39:57;78378.84;;;28.44;67.61
63665;BME280;49820;33.966;73.390;2023-07-02T11:42:29;78389.25;;;28.98;65.33
63665;BME280;49820;33.966;73.390;2023-07-02T11:44:58;78400.38;;;28.80;69.81
63665;BME280;49820;33.966;73.390;2023-07-02T11:47:29;78389.56;;;28.78;66.19
63665;BME280;49820;33.966;73.390;2023-07-02T11:49:58;78379.09;;;28.72;66.87
63665;BME280;49820;33.966;73.390;2023-07-02T11:52:47;78384.97;;;28.44;67.06
63665;BME280;49820;33.966;73.390;2023-07-02T11:55:16;78356.00;;;27.74;70.99
63665;BME280;49820;33.966;73.390;2023-07-02T11:57:45;78379.06;;;28.09;68.75
63665;BME280;49820;33.966;73.390;2023-07-02T12:00:15;78373.88;;;27.58;75.91
63665;BME280;49820;33.966;73.390;2023-07-02T12:02:45;78395.19;;;28.14;69.04
63665;BME280;49820;33.966;73.390;2023-07-02T12:05:15;78399.56;;;27.87;75.75
63665;BME280;49820;33.966;73.390;2023-07-02T12:07:44;78378.44;;;27.44;73.17
63665;BME280;49820;33.966;73.390;2023-07-02T12:10:15;78394.28;;;26.68;83.12
63665;BME280;49820;33.966;73.390;2023-07-02T12:12:43;78394.78;;;26.19;84.84
63665;BME280;49820;33.966;73.390;2023-07-02T12:15:12;78388.53;;;25.86;88.46
63665;BME280;49820;33.966;73.390;2023-07-02T12:17:42;78400.16;;;25.33;94.50
63665;BME280;49820;33.966;73.390;2023-07-02T12:20:11;78388.09;;;25.30;95.63
63665;BME280;49820;33.966;73.390;2023-07-02T12:22:47;78347.22;;;24.74;93.90
63665;BME280;49820;33.966;73.390;2023-07-02T12:26:05;78239.38;;;23.74;100.00
63665;BME280;49820;33.966;73.390;2023-07-02T12:33:55;78284.94;;;24.12;100.00
63665;BME280;49820;33.966;73.390;2023-07-02T12:37:35;78409.06;;;24.97;100.00
63665;BME280;49820;33.966;73.390;2023-07-02T12:40:04;78399.09;;;24.65;100.00
63665;BME280;49820;33.966;73.390;2023-07-02T12:42:33;78373.25;;;24.37;100.00
63665;BME280;49820;33.966;73.390;2023-07-02T12:45:05;78407.41;;;24.55;100.00
63665;BME280;49820;33.966;73.390;2023-07-02T12:47:42;78402.94;;;24.32;100.00
63665;BME280;49820;33.966;73.390;2023-07-02T12:50:11;78390.47;;;24.16;100.00
63665;BME280;49820;33.966;73.390;2023-07-02T13:09:19;78360.44;;;22.92;100.00
63665;BME280;49820;33.966;73.390;2023-07-02T13:11:50;78378.94;;;23.00;100.00
63665;BME280;49820;33.966;73.390;2023-07-02T13:14:19;78400.78;;;22.89;100.00
63665;BME280;49820;33.966;73.390;2023-07-02T13:16:48;78388.72;;;22.56;100.00
63665;BME280;49820;33.966;73.390;2023-07-02T13:19:18;78412.97;;;22.60;100.00
63665;BME280;49820;33.966;73.390;2023-07-02T13:21:48;78411.66;;;22.59;100.00
63665;BME280;49820;33.966;73.390;2023-07-02T13:24:19;78390.13;;;22.25;100.00
63665;BME280;49820;33.966;73.390;2023-07-02T13:26:48;78405.38;;;22.31;100.00
63665;BME280;49820;33.966;73.390;2023-07-02T13:29:17;78371.41;;;21.89;100.00
63665;BME280;49820;33.966;73.390;2023-07-02T13:31:46;78433.00;;;22.25;100.00
63665;BME280;49820;33.966;73.390;2023-07-02T13:34:16;78431.59;;;22.15;100.00
63665;BME280;49820;33.966;73.390;2023-07-02T13:36:44;78418.03;;;22.04;100.00
63665;BME280;49820;33.966;73.390;2023-07-02T13:53:44;78299.44;;;20.07;100.00
63665;BME280;49820;33.966;73.390;2023-07-02T13:56:13;78442.38;;;21.21;100.00
63665;BME280;49820;33.966;73.390;2023-07-02T13:59:01;78421.63;;;20.94;100.00
63665;BME280;49820;33.966;73.390;2023-07-02T14:01:31;78420.06;;;20.87;100.00
63665;BME280;49820;33.966;73.390;2023-07-02T14:04:03;78398.97;;;20.66;100.00
63665;BME280;49820;33.966;73.390;2023-07-02T14:06:39;78435.69;;;20.86;100.00
63665;BME280;49820;33.966;73.390;2023-07-02T14:09:09;78435.94;;;20.72;100.00
63665;BME280;49820;33.966;73.390;2023-07-02T14:11:41;78428.53;;;20.60;100.00
63665;BME280;49820;33.966;73.390;2023-07-02T14:14:12;78436.66;;;20.60;100.00
63665;BME280;49820;33.966;73.390;2023-07-02T14:16:41;78413.72;;;20.35;100.00
63665;BME280;49820;33.966;73.390;2023-07-02T14:19:12;78444.25;;;20.46;100.00
63665;BME280;49820;33.966;73.390;2023-07-02T14:21:42;78442.94;;;20.35;100.00
63665;BME280;49820;33.966;73.390;2023-07-02T14:24:11;78453.41;;;20.41;100.00
63665;BME280;49820;33.966;73.390;2023-07-02T14:26:39;78455.28;;;20.32;100.00
63665;BME280;49820;33.966;73.390;2023-07-02T14:29:08;78465.22;;;20.25;100.00
63665;BME280;49820;33.966;73.390;2023-07-02T14:31:38;78455.06;;;20.12;100.00
63665;BME280;49820;33.966;73.390;2023-07-02T14:34:07;78467.09;;;20.15;100.00
63665;BME280;49820;33.966;73.390;2023-07-02T14:36:39;78456.97;;;20.03;100.00
63665;BME280;49820;33.966;73.390;2023-07-02T14:39:10;78465.69;;;19.93;100.00
63665;BME280;49820;33.966;73.390;2023-07-02T14:41:39;78476.72;;;20.02;100.00
63665;BME280;49820;33.966;73.390;2023-07-02T14:44:08;78469.53;;;19.86;100.00
63665;BME280;49820;33.966;73.390;2023-07-02T14:46:37;78455.06;;;19.66;100.00
63665;BME280;49820;33.966;73.390;2023-07-02T14:49:06;78462.34;;;19.69;100.00
63665;BME280;49820;33.966;73.390;2023-07-02T14:51:35;78447.66;;;19.54;100.00
63665;BME280;49820;33.966;73.390;2023-07-02T14:54:04;78475.63;;;19.73;100.00
63665;BME280;49820;33.966;73.390;2023-07-02T14:56:35;78484.66;;;19.70;100.00
63665;BME280;49820;33.966;73.390;2023-07-02T14:59:06;78483.38;;;19.69;100.00
63665;BME280;49820;33.966;73.390;2023-07-02T15:01:37;78461.44;;;19.50;100.00
